sensor_id;sensor_type;location;lat;lon;timestamp;pressure;altitude;pressure_sealevel;temperature;humidity
73085;BME280;62974;49.460;10.892;2023-10-09T00:00:07;98384.13;;;13.56;99.74
73085;BME280;62974;49.460;10.892;2023-10-09T00:03:01;98380.81;;;13.60;99.48
73085;BME280;62974;49.460;10.892;2023-10-09T00:05:30;98383.53;;;13.60;99.51
73085;BME280;62974;49.460;10.892;2023-10-09T00:08:13;98377.69;;;13.57;99.66
73085;BME280;62974;49.460;10.892;2023-10-09T00:10:47;98380.59;;;13.55;99.36
73085;BME280;62974;49.460;10.892;2023-10-09T00:13:22;98377.06;;;13.55;99.52
73085;BME280;62974;49.460;10.892;2023-10-09T00:15:55;98381.00;;;13.52;99.56
73085;BME280;62974;49.460;10.892;2023-10-09T00:18:26;98371.88;;;13.53;99.57
73085;BME280;62974;49.460;10.892;2023-10-09T00:20:56;98368.13;;;13.48;99.83
73085;BME280;62974;49.460;10.892;2023-10-09T00:23:38;98366.69;;;13.52;99.84
73085;BME280;62974;49.460;10.892;2023-10-09T00:26:05;98365.84;;;13.45;99.64
73085;BME280;62974;49.460;10.892;2023-10-09T00:28:39;98364.59;;;13.47;99.85
73085;BME280;62974;49.460;10.892;2023-10-09T00:31:10;98352.13;;;13.46;99.61
73085;BME280;62974;49.460;10.892;2023-10-09T00:33:42;98356.69;;;13.46;99.67
73085;BME280;62974;49.460;10.892;2023-10-09T00:36:09;98357.34;;;13.48;99.75
73085;BME280;62974;49.460;10.892;2023-10-09T00:38:38;98347.38;;;13.48;99.12
73085;BME280;62974;49.460;10.892;2023-10-09T00:41:11;98344.03;;;13.46;99.58
73085;BME280;62974;49.460;10.892;2023-10-09T00:43:52;98337.63;;;13.47;99.55
73085;BME280;62974;49.460;10.892;2023-10-09T00:46:21;98332.22;;;13.47;99.50
73085;BME280;62974;49.460;10.892;2023-10-09T00:48:54;98328.50;;;13.48;99.34
73085;BME280;62974;49.460;10.892;2023-10-09T00:51:24;98323.72;;;13.44;99.63
73085;BME280;62974;49.460;10.892;2023-10-09T00:53:55;98319.97;;;13.45;99.62
73085;BME280;62974;49.460;10.892;2023-10-09T00:56:26;98313.53;;;13.46;99.73
73085;BME280;62974;49.460;10.892;2023-10-09T00:59:07;98313.09;;;13.42;100.00
73085;BME280;62974;49.460;10.892;2023-10-09T01:01:41;98302.13;;;13.44;99.82
73085;BME280;62974;49.460;10.892;2023-10-09T01:04:15;98307.72;;;13.42;99.99
73085;BME280;62974;49.460;10.892;2023-10-09T01:06:46;98300.03;;;13.39;100.00
73085;BME280;62974;49.460;10.892;2023-10-09T01:09:19;98292.59;;;13.41;100.00
73085;BME280;62974;49.460;10.892;2023-10-09T01:11:49;98288.41;;;13.39;100.00
73085;BME280;62974;49.460;10.892;2023-10-09T01:14:32;98294.22;;;13.42;100.00
73085;BME280;62974;49.460;10.892;2023-10-09T01:17:02;98293.38;;;13.42;99.86
73085;BME280;62974;49.460;10.892;2023-10-09T01:19:35;98288.00;;;13.35;100.00
73085;BME280;62974;49.460;10.892;2023-10-09T01:22:03;98287.19;;;13.41;100.00
73085;BME280;62974;49.460;10.892;2023-10-09T01:24:40;98289.03;;;13.34;100.00
73085;BME280;62974;49.460;10.892;2023-10-09T01:27:09;98289.03;;;13.34;100.00
73085;BME280;62974;49.460;10.892;2023-10-09T01:29:42;98293.59;;;13.34;100.00
73085;BME280;62974;49.460;10.892;2023-10-09T01:32:10;98291.31;;;13.31;100.00
73085;BME280;62974;49.460;10.892;2023-10-09T01:34:43;98293.47;;;12.88;100.00
73085;BME280;62974;49.460;10.892;2023-10-09T01:37:15;98287.69;;;12.37;100.00
73085;BME280;62974;49.460;10.892;2023-10-09T01:39:47;98278.38;;;13.06;100.00
73085;BME280;62974;49.460;10.892;2023-10-09T01:42:15;98271.66;;;12.69;100.00
73085;BME280;62974;49.460;10.892;2023-10-09T01:44:51;98265.19;;;12.16;100.00
73085;BME280;62974;49.460;10.892;2023-10-09T01:47:19;98261.53;;;12.85;100.00
73085;BME280;62974;49.460;10.892;2023-10-09T01:49:48;98266.41;;;13.15;100.00
73085;BME280;62974;49.460;10.892;2023-10-09T01:52:16;98254.72;;;12.89;100.00
73085;BME280;62974;49.460;10.892;2023-10-09T01:54:45;98258.66;;;12.93;100.00
73085;BME280;62974;49.460;10.892;2023-10-09T01:57:18;98253.00;;;12.20;100.00
73085;BME280;62974;49.460;10.892;2023-10-09T01:59:50;98246.00;;;12.93;100.00
73085;BME280;62974;49.460;10.892;2023-10-09T02:02:20;98245.66;;;13.16;100.00
73085;BME280;62974;49.460;10.892;2023-10-09T02:05:00;98241.53;;;13.13;100.00
73085;BME280;62974;49.460;10.892;2023-10-09T02:07:35;98243.13;;;13.01;100.00
73085;BME280;62974;49.460;10.892;2023-10-09T02:10:11;98244.03;;;13.22;100.00
73085;BME280;62974;49.460;10.892;2023-10-09T02:12:53;98242.13;;;13.15;100.00
73085;BME280;62974;49.460;10.892;2023-10-09T02:15:25;98239.44;;;13.22;100.00
73085;BME280;62974;49.460;10.892;2023-10-09T02:18:20;98241.72;;;13.25;100.00
73085;BME280;62974;49.460;10.892;2023-10-09T02:21:07;98241.19;;;11.81;100.00
73085;BME280;62974;49.460;10.892;2023-10-09T02:23:40;98233.13;;;12.82;100.00
73085;BME280;62974;49.460;10.892;2023-10-09T02:26:12;98234.47;;;13.12;100.00
73085;BME280;62974;49.460;10.892;2023-10-09T02:28:45;98228.22;;;13.18;100.00
73085;BME280;62974;49.460;10.892;2023-10-09T02:31:19;98232.41;;;13.21;100.00
73085;BME280;62974;49.460;10.892;2023-10-09T02:33:50;98225.94;;;13.22;100.00
73085;BME280;62974;49.460;10.892;2023-10-09T02:36:21;98230.53;;;13.22;100.00
73085;BME280;62974;49.460;10.892;2023-10-09T02:38:48;98235.69;;;13.23;100.00
73085;BME280;62974;49.460;10.892;2023-10-09T02:41:19;98229.69;;;13.21;100.00
73085;BME280;62974;49.460;10.892;2023-10-09T02:43:54;98231.16;;;13.24;100.00
73085;BME280;62974;49.460;10.892;2023-10-09T02:46:22;98228.88;;;13.21;100.00
73085;BME280;62974;49.460;10.892;2023-10-09T02:48:57;98237.38;;;13.18;100.00
73085;BME280;62974;49.460;10.892;2023-10-09T02:51:26;98228.22;;;13.12;100.00
73085;BME280;62974;49.460;10.892;2023-10-09T02:54:01;98223.88;;;13.11;100.00
73085;BME280;62974;49.460;10.892;2023-10-09T02:56:44;98215.16;;;13.15;100.00
73085;BME280;62974;49.460;10.892;2023-10-09T02:59:14;98218.66;;;13.09;100.00
73085;BME280;62974;49.460;10.892;2023-10-09T03:01:41;98209.34;;;13.12;100.00
73085;BME280;62974;49.460;10.892;2023-10-09T03:04:10;98212.47;;;13.15;100.00
73085;BME280;62974;49.460;10.892;2023-10-09T03:06:40;98213.09;;;13.18;100.00
73085;BME280;62974;49.460;10.892;2023-10-09T03:09:16;98213.50;;;13.14;100.00
73085;BME280;62974;49.460;10.892;2023-10-09T03:11:45;98212.47;;;13.15;100.00
73085;BME280;62974;49.460;10.892;2023-10-09T03:14:14;98217.66;;;13.17;100.00
73085;BME280;62974;49.460;10.892;2023-10-09T03:16:43;98218.88;;;13.14;100.00
73085;BME280;62974;49.460;10.892;2023-10-09T03:19:12;98217.25;;;13.13;100.00
73085;BME280;62974;49.460;10.892;2023-10-09T03:21:40;98212.81;;;13.06;100.00
73085;BME280;62974;49.460;10.892;2023-10-09T03:24:09;98210.31;;;12.98;100.00
73085;BME280;62974;49.460;10.892;2023-10-09T03:26:38;98204.13;;;13.04;100.00
73085;BME280;62974;49.460;10.892;2023-10-09T03:29:05;98208.50;;;13.05;100.00
73085;BME280;62974;49.460;10.892;2023-10-09T03:31:36;98199.75;;;13.03;100.00
73085;BME280;62974;49.460;10.892;2023-10-09T03:34:05;98204.56;;;13.01;100.00
73085;BME280;62974;49.460;10.892;2023-10-09T03:36:35;98206.19;;;13.02;100.00
73085;BME280;62974;49.460;10.892;2023-10-09T03:39:05;98208.28;;;13.00;100.00
73085;BME280;62974;49.460;10.892;2023-10-09T03:41:44;98204.13;;;12.97;100.00
73085;BME280;62974;49.460;10.892;2023-10-09T03:44:13;98199.34;;;12.93;100.00
73085;BME280;62974;49.460;10.892;2023-10-09T03:46:44;98198.31;;;12.94;100.00
73085;BME280;62974;49.460;10.892;2023-10-09T03:49:12;98190.84;;;12.89;100.00
73085;BME280;62974;49.460;10.892;2023-10-09T03:51:48;98185.03;;;12.92;100.00
73085;BME280;62974;49.460;10.892;2023-10-09T03:54:16;98183.78;;;12.88;100.00
73085;BME280;62974;49.460;10.892;2023-10-09T03:56:47;98181.09;;;12.88;100.00
73085;BME280;62974;49.460;10.892;2023-10-09T03:59:16;98178.22;;;12.90;100.00
73085;BME280;62974;49.460;10.892;2023-10-09T04:01:46;98178.81;;;12.85;100.00
73085;BME280;62974;49.460;10.892;2023-10-09T04:04:15;98183.78;;;12.82;100.00
73085;BME280;62974;49.460;10.892;2023-10-09T04:06:43;98191.66;;;12.83;100.00
73085;BME280;62974;49.460;10.892;2023-10-09T04:09:14;98182.31;;;12.79;100.00
73085;BME280;62974;49.460;10.892;2023-10-09T04:11:55;98184.19;;;12.79;100.00
73085;BME280;62974;49.460;10.892;2023-10-09T04:14:40;98181.28;;;12.74;100.00
73085;BME280;62974;49.460;10.892;2023-10-09T04:17:16;98180.44;;;12.66;100.00
73085;BME280;62974;49.460;10.892;2023-10-09T04:19:57;98189.13;;;12.62;100.00
73085;BME280;62974;49.460;10.892;2023-10-09T04:22:43;98189.16;;;12.68;100.00
73085;BME280;62974;49.460;10.892;2023-10-09T04:25:19;98191.19;;;12.60;100.00
73085;BME280;62974;49.460;10.892;2023-10-09T04:27:53;98189.75;;;12.64;100.00
73085;BME280;62974;49.460;10.892;2023-10-09T04:30:26;98183.13;;;12.60;100.00
73085;BME280;62974;49.460;10.892;2023-10-09T04:32:54;98183.72;;;12.62;100.00
73085;BME280;62974;49.460;10.892;2023-10-09T04:35:30;98180.63;;;12.58;100.00
73085;BME280;62974;49.460;10.892;2023-10-09T04:37:59;98175.22;;;12.58;100.00
73085;BME280;62974;49.460;10.892;2023-10-09T04:40:33;98172.75;;;12.57;100.00
73085;BME280;62974;49.460;10.892;2023-10-09T04:43:18;98165.69;;;12.49;100.00
73085;BME280;62974;49.460;10.892;2023-10-09T04:45:47;98161.34;;;12.55;100.00
73085;BME280;62974;49.460;10.892;2023-10-09T04:48:34;98152.41;;;12.54;100.00
73085;BME280;62974;49.460;10.892;2023-10-09T04:51:05;98164.25;;;12.53;100.00
73085;BME280;62974;49.460;10.892;2023-10-09T04:53:47;98165.47;;;12.51;100.00
73085;BME280;62974;49.460;10.892;2023-10-09T04:56:28;98163.00;;;12.49;100.00
73085;BME280;62974;49.460;10.892;2023-10-09T04:58:59;98166.06;;;12.46;100.00
73085;BME280;62974;49.460;10.892;2023-10-09T05:01:31;98169.19;;;12.43;100.00
73085;BME280;62974;49.460;10.892;2023-10-09T05:04:10;98163.56;;;12.32;100.00
73085;BME280;62974;49.460;10.892;2023-10-09T05:06:54;98167.31;;;12.44;100.00
73085;BME280;62974;49.460;10.892;2023-10-09T05:09:23;98163.38;;;12.40;100.00
73085;BME280;62974;49.460;10.892;2023-10-09T05:11:54;98163.56;;;12.38;100.00
73085;BME280;62974;49.460;10.892;2023-10-09T05:14:36;98170.44;;;12.41;100.00
73085;BME280;62974;49.460;10.892;2023-10-09T05:17:11;98168.75;;;12.40;100.00
73085;BME280;62974;49.460;10.892;2023-10-09T05:19:43;98172.47;;;12.39;100.00
73085;BME280;62974;49.460;10.892;2023-10-09T05:22:21;98178.28;;;12.36;100.00
73085;BME280;62974;49.460;10.892;2023-10-09T05:25:03;98166.69;;;12.35;100.00
73085;BME280;62974;49.460;10.892;2023-10-09T05:27:43;98174.75;;;12.35;100.00
73085;BME280;62974;49.460;10.892;2023-10-09T05:30:17;98177.03;;;12.32;100.00
73085;BME280;62974;49.460;10.892;2023-10-09T05:32:55;98179.28;;;12.28;100.00
73085;BME280;62974;49.460;10.892;2023-10-09T05:35:26;98195.44;;;12.28;100.00
73085;BME280;62974;49.460;10.892;2023-10-09T05:38:07;98195.25;;;12.30;100.00
73085;BME280;62974;49.460;10.892;2023-10-09T05:40:50;98204.56;;;12.27;100.00
73085;BME280;62974;49.460;10.892;2023-10-09T05:43:22;98193.69;;;12.07;100.00
73085;BME280;62974;49.460;10.892;2023-10-09T05:46:07;98198.31;;;12.13;100.00
73085;BME280;62974;49.460;10.892;2023-10-09T05:48:36;98198.50;;;12.12;100.00
73085;BME280;62974;49.460;10.892;2023-10-09T05:51:21;98192.66;;;12.02;100.00
73085;BME280;62974;49.460;10.892;2023-10-09T05:54:06;98180.25;;;12.07;100.00
73085;BME280;62974;49.460;10.892;2023-10-09T05:57:10;98175.28;;;12.11;100.00
73085;BME280;62974;49.460;10.892;2023-10-09T06:00:03;98181.97;;;12.21;100.00
73085;BME280;62974;49.460;10.892;2023-10-09T06:02:48;98186.34;;;11.54;100.00
73085;BME280;62974;49.460;10.892;2023-10-09T06:05:33;98185.22;;;12.10;100.00
73085;BME280;62974;49.460;10.892;2023-10-09T06:08:30;98183.84;;;12.28;100.00
73085;BME280;62974;49.460;10.892;2023-10-09T06:11:12;98187.38;;;12.35;100.00
73085;BME280;62974;49.460;10.892;2023-10-09T06:13:54;98181.41;;;12.39;100.00
73085;BME280;62974;49.460;10.892;2023-10-09T06:16:31;98185.75;;;12.40;100.00
73085;BME280;62974;49.460;10.892;2023-10-09T06:19:09;98185.94;;;12.39;100.00
73085;BME280;62974;49.460;10.892;2023-10-09T06:21:40;98194.44;;;12.42;100.00
73085;BME280;62974;49.460;10.892;2023-10-09T06:24:22;98186.59;;;12.47;100.00
73085;BME280;62974;49.460;10.892;2023-10-09T06:26:52;98180.19;;;12.48;100.00
73085;BME280;62974;49.460;10.892;2023-10-09T06:29:34;98184.97;;;12.53;100.00
73085;BME280;62974;49.460;10.892;2023-10-09T06:32:18;98184.09;;;12.33;100.00
73085;BME280;62974;49.460;10.892;2023-10-09T06:35:05;98185.53;;;12.35;100.00
73085;BME280;62974;49.460;10.892;2023-10-09T06:37:48;98186.94;;;12.24;100.00
73085;BME280;62974;49.460;10.892;2023-10-09T06:40:34;98193.13;;;12.18;100.00
73085;BME280;62974;49.460;10.892;2023-10-09T06:43:20;98190.81;;;12.09;100.00
73085;BME280;62974;49.460;10.892;2023-10-09T06:45:55;98181.31;;;12.19;100.00
73085;BME280;62974;49.460;10.892;2023-10-09T06:48:26;98175.00;;;12.47;100.00
73085;BME280;62974;49.460;10.892;2023-10-09T06:51:12;98192.41;;;11.97;100.00
73085;BME280;62974;49.460;10.892;2023-10-09T06:54:03;98179.72;;;12.32;100.00
73085;BME280;62974;49.460;10.892;2023-10-09T06:56:33;98184.56;;;12.56;100.00
73085;BME280;62974;49.460;10.892;2023-10-09T06:59:18;98182.28;;;12.66;100.00
73085;BME280;62974;49.460;10.892;2023-10-09T07:01:51;98183.75;;;12.75;100.00
73085;BME280;62974;49.460;10.892;2023-10-09T07:04:37;98189.38;;;12.80;100.00
73085;BME280;62974;49.460;10.892;2023-10-09T07:07:14;98188.75;;;12.91;100.00
73085;BME280;62974;49.460;10.892;2023-10-09T07:09:41;98198.38;;;13.13;100.00
73085;BME280;62974;49.460;10.892;2023-10-09T07:12:32;98199.63;;;13.37;100.00
73085;BME280;62974;49.460;10.892;2023-10-09T07:15:00;98200.22;;;13.26;100.00
73085;BME280;62974;49.460;10.892;2023-10-09T07:17:50;98188.13;;;13.75;100.00
73085;BME280;62974;49.460;10.892;2023-10-09T07:20:20;98194.59;;;13.67;100.00
73085;BME280;62974;49.460;10.892;2023-10-09T07:23:03;98191.84;;;13.87;100.00
73085;BME280;62974;49.460;10.892;2023-10-09T07:25:44;98199.53;;;13.83;100.00
73085;BME280;62974;49.460;10.892;2023-10-09T07:28:28;98213.16;;;14.15;100.00
73085;BME280;62974;49.460;10.892;2023-10-09T07:31:16;98219.88;;;13.92;100.00
73085;BME280;62974;49.460;10.892;2023-10-09T07:33:51;98227.16;;;13.85;100.00
73085;BME280;62974;49.460;10.892;2023-10-09T07:36:25;98230.22;;;14.02;100.00
73085;BME280;62974;49.460;10.892;2023-10-09T07:39:05;98225.66;;;14.09;100.00
73085;BME280;62974;49.460;10.892;2023-10-09T07:41:43;98232.22;;;14.26;100.00
73085;BME280;62974;49.460;10.892;2023-10-09T07:44:28;98231.59;;;14.37;100.00
73085;BME280;62974;49.460;10.892;2023-10-09T07:47:05;98228.84;;;14.50;100.00
73085;BME280;62974;49.460;10.892;2023-10-09T07:49:45;98232.88;;;14.79;100.00
73085;BME280;62974;49.460;10.892;2023-10-09T07:52:21;98243.56;;;14.99;100.00
73085;BME280;62974;49.460;10.892;2023-10-09T07:54:49;98245.63;;;14.97;100.00
73085;BME280;62974;49.460;10.892;2023-10-09T07:57:21;98245.03;;;14.95;100.00
73085;BME280;62974;49.460;10.892;2023-10-09T07:59:53;98241.56;;;14.88;100.00
73085;BME280;62974;49.460;10.892;2023-10-09T08:02:42;98244.13;;;14.76;100.00
73085;BME280;62974;49.460;10.892;2023-10-09T08:05:09;98248.88;;;14.81;100.00
73085;BME280;62974;49.460;10.892;2023-10-09T08:07:47;98247.94;;;15.00;100.00
73085;BME280;62974;49.460;10.892;2023-10-09T08:11:01;98250.53;;;15.13;100.00
73085;BME280;62974;49.460;10.892;2023-10-09T08:13:54;98256.50;;;15.22;100.00
73085;BME280;62974;49.460;10.892;2023-10-09T08:16:27;98259.41;;;15.27;100.00
73085;BME280;62974;49.460;10.892;2023-10-09T08:19:03;98245.41;;;15.36;100.00
73085;BME280;62974;49.460;10.892;2023-10-09T08:21:54;98250.28;;;15.53;100.00
73085;BME280;62974;49.460;10.892;2023-10-09T08:24:45;98251.16;;;15.15;100.00
73085;BME280;62974;49.460;10.892;2023-10-09T08:27:22;98247.34;;;15.54;100.00
73085;BME280;62974;49.460;10.892;2023-10-09T08:30:13;98255.97;;;15.38;100.00
73085;BME280;62974;49.460;10.892;2023-10-09T08:32:55;98256.59;;;15.71;100.00
73085;BME280;62974;49.460;10.892;2023-10-09T08:35:33;98253.59;;;15.79;100.00
73085;BME280;62974;49.460;10.892;2023-10-09T08:38:01;98261.44;;;16.06;100.00
73085;BME280;62974;49.460;10.892;2023-10-09T08:40:39;98265.94;;;15.93;100.00
73085;BME280;62974;49.460;10.892;2023-10-09T08:43:09;98264.16;;;16.06;100.00
73085;BME280;62974;49.460;10.892;2023-10-09T08:45:39;98269.84;;;15.79;100.00
73085;BME280;62974;49.460;10.892;2023-10-09T08:48:07;98262.38;;;15.75;100.00
73085;BME280;62974;49.460;10.892;2023-10-09T08:50:45;98266.31;;;15.97;100.00
73085;BME280;62974;49.460;10.892;2023-10-09T08:53:14;98265.84;;;16.43;96.98
73085;BME280;62974;49.460;10.892;2023-10-09T08:55:43;98270.53;;;16.36;100.00
73085;BME280;62974;49.460;10.892;2023-10-09T08:58:14;98270.75;;;16.16;100.00
73085;BME280;62974;49.460;10.892;2023-10-09T09:00:45;98273.16;;;16.42;99.61
73085;BME280;62974;49.460;10.892;2023-10-09T09:03:14;98261.09;;;16.38;97.98
73085;BME280;62974;49.460;10.892;2023-10-09T09:05:45;98268.94;;;16.83;95.72
73085;BME280;62974;49.460;10.892;2023-10-09T09:08:23;98272.09;;;16.25;99.23
73085;BME280;62974;49.460;10.892;2023-10-09T09:11:01;98270.97;;;16.69;95.22
73085;BME280;62974;49.460;10.892;2023-10-09T09:13:42;98273.06;;;16.49;97.26
73085;BME280;62974;49.460;10.892;2023-10-09T09:16:17;98271.28;;;16.43;96.07
73085;BME280;62974;49.460;10.892;2023-10-09T09:18:51;98264.63;;;16.21;98.42
73085;BME280;62974;49.460;10.892;2023-10-09T09:21:27;98274.06;;;15.93;100.00
73085;BME280;62974;49.460;10.892;2023-10-09T09:23:55;98262.41;;;16.36;96.56
73085;BME280;62974;49.460;10.892;2023-10-09T09:26:35;98265.84;;;16.25;97.20
73085;BME280;62974;49.460;10.892;2023-10-09T09:29:05;98271.94;;;16.38;96.95
73085;BME280;62974;49.460;10.892;2023-10-09T09:31:33;98253.88;;;16.51;95.64
73085;BME280;62974;49.460;10.892;2023-10-09T09:34:08;98271.19;;;16.50;97.92
73085;BME280;62974;49.460;10.892;2023-10-09T09:36:53;98269.31;;;16.68;94.31
73085;BME280;62974;49.460;10.892;2023-10-09T09:39:22;98277.75;;;16.60;94.85
73085;BME280;62974;49.460;10.892;2023-10-09T09:42:05;98291.50;;;16.40;98.29
73085;BME280;62974;49.460;10.892;2023-10-09T09:44:37;98290.16;;;16.50;100.00
73085;BME280;62974;49.460;10.892;2023-10-09T09:47:12;98307.44;;;16.55;99.67
73085;BME280;62974;49.460;10.892;2023-10-09T09:49:51;98301.78;;;16.57;100.00
73085;BME280;62974;49.460;10.892;2023-10-09T09:52:20;98298.31;;;16.31;100.00
73085;BME280;62974;49.460;10.892;2023-10-09T09:54:51;98295.88;;;16.41;100.00
73085;BME280;62974;49.460;10.892;2023-10-09T09:57:23;98302.69;;;16.51;100.00
73085;BME280;62974;49.460;10.892;2023-10-09T09:59:54;98293.91;;;16.49;100.00
73085;BME280;62974;49.460;10.892;2023-10-09T10:02:27;98306.91;;;16.83;100.00
73085;BME280;62974;49.460;10.892;2023-10-09T10:05:04;98298.41;;;16.61;100.00
73085;BME280;62974;49.460;10.892;2023-10-09T10:07:34;98297.88;;;17.19;96.55
73085;BME280;62974;49.460;10.892;2023-10-09T10:10:36;98297.78;;;16.96;93.75
73085;BME280;62974;49.460;10.892;2023-10-09T10:13:07;98300.28;;;17.09;96.32
73085;BME280;62974;49.460;10.892;2023-10-09T10:16:00;98300.25;;;16.97;92.97
73085;BME280;62974;49.460;10.892;2023-10-09T10:18:32;98304.44;;;16.63;96.82
73085;BME280;62974;49.460;10.892;2023-10-09T10:21:12;98298.47;;;16.73;96.77
73085;BME280;62974;49.460;10.892;2023-10-09T10:23:44;98292.56;;;16.94;93.03
73085;BME280;62974;49.460;10.892;2023-10-09T10:26:18;98301.53;;;16.95;94.31
73085;BME280;62974;49.460;10.892;2023-10-09T10:29:17;98305.66;;;16.97;95.34
73085;BME280;62974;49.460;10.892;2023-10-09T10:31:57;98294.25;;;16.77;96.01
73085;BME280;62974;49.460;10.892;2023-10-09T10:34:55;98293.13;;;16.66;95.92
73085;BME280;62974;49.460;10.892;2023-10-09T10:37:35;98277.91;;;16.65;99.16
73085;BME280;62974;49.460;10.892;2023-10-09T10:40:05;98267.06;;;16.47;100.00
73085;BME280;62974;49.460;10.892;2023-10-09T10:42:47;98270.66;;;16.41;100.00
73085;BME280;62974;49.460;10.892;2023-10-09T10:45:24;98268.03;;;16.34;100.00
73085;BME280;62974;49.460;10.892;2023-10-09T10:48:02;98263.59;;;16.40;100.00
73085;BME280;62974;49.460;10.892;2023-10-09T10:50:37;98266.06;;;16.41;100.00
73085;BME280;62974;49.460;10.892;2023-10-09T10:53:11;98263.22;;;16.55;100.00
73085;BME280;62974;49.460;10.892;2023-10-09T10:55:56;98252.28;;;16.43;100.00
73085;BME280;62974;49.460;10.892;2023-10-09T10:58:23;98240.75;;;16.29;100.00
73085;BME280;62974;49.460;10.892;2023-10-09T11:01:02;98237.59;;;16.32;100.00
73085;BME280;62974;49.460;10.892;2023-10-09T11:03:38;98240.75;;;16.29;100.00
73085;BME280;62974;49.460;10.892;2023-10-09T11:06:27;98247.75;;;16.37;100.00
73085;BME280;62974;49.460;10.892;2023-10-09T11:09:04;98240.94;;;16.34;100.00
73085;BME280;62974;49.460;10.892;2023-10-09T11:11:48;98252.44;;;16.48;100.00
73085;BME280;62974;49.460;10.892;2023-10-09T11:14:16;98253.97;;;16.62;100.00
73085;BME280;62974;49.460;10.892;2023-10-09T11:16:50;98247.72;;;16.62;100.00
73085;BME280;62974;49.460;10.892;2023-10-09T11:19:24;98239.09;;;16.83;100.00
73085;BME280;62974;49.460;10.892;2023-10-09T11:22:08;98237.97;;;17.02;100.00
73085;BME280;62974;49.460;10.892;2023-10-09T11:24:55;98234.25;;;16.85;100.00
73085;BME280;62974;49.460;10.892;2023-10-09T11:27:40;98243.66;;;17.12;100.00
73085;BME280;62974;49.460;10.892;2023-10-09T11:30:17;98242.16;;;16.86;100.00
73085;BME280;62974;49.460;10.892;2023-10-09T11:33:05;98251.47;;;16.61;100.00
73085;BME280;62974;49.460;10.892;2023-10-09T11:35:40;98262.09;;;16.92;100.00
73085;BME280;62974;49.460;10.892;2023-10-09T11:38:10;98259.72;;;16.84;100.00
73085;BME280;62974;49.460;10.892;2023-10-09T11:40:49;98255.47;;;16.88;100.00
73085;BME280;62974;49.460;10.892;2023-10-09T11:43:45;98254.13;;;16.97;100.00
73085;BME280;62974;49.460;10.892;2023-10-09T11:46:18;98254.94;;;16.98;100.00
73085;BME280;62974;49.460;10.892;2023-10-09T11:49:05;98250.31;;;16.86;100.00
73085;BME280;62974;49.460;10.892;2023-10-09T11:51:50;98255.16;;;16.96;98.92
73085;BME280;62974;49.460;10.892;2023-10-09T11:54:53;98277.59;;;16.92;98.63
73085;BME280;62974;49.460;10.892;2023-10-09T11:57:26;98291.88;;;16.99;95.98
73085;BME280;62974;49.460;10.892;2023-10-09T11:59:58;98304.03;;;16.78;97.66
73085;BME280;62974;49.460;10.892;2023-10-09T12:02:26;98327.09;;;16.87;98.98
73085;BME280;62974;49.460;10.892;2023-10-09T12:04:54;98329.19;;;17.03;97.49
73085;BME280;62974;49.460;10.892;2023-10-09T12:07:24;98328.63;;;17.13;93.78
73085;BME280;62974;49.460;10.892;2023-10-09T12:09:53;98329.63;;;17.00;94.62
73085;BME280;62974;49.460;10.892;2023-10-09T12:12:22;98327.94;;;16.87;97.41
73085;BME280;62974;49.460;10.892;2023-10-09T12:14:53;98317.66;;;16.89;93.99
73085;BME280;62974;49.460;10.892;2023-10-09T12:17:20;98305.28;;;17.12;90.34
73085;BME280;62974;49.460;10.892;2023-10-09T12:19:52;98299.78;;;17.00;91.56
73085;BME280;62974;49.460;10.892;2023-10-09T12:22:23;98275.31;;;16.88;94.27
73085;BME280;62974;49.460;10.892;2023-10-09T12:24:54;98248.06;;;16.65;95.80
73085;BME280;62974;49.460;10.892;2023-10-09T12:27:23;98205.59;;;16.89;94.18
73085;BME280;62974;49.460;10.892;2023-10-09T12:29:51;98193.19;;;16.81;96.61
73085;BME280;62974;49.460;10.892;2023-10-09T12:32:19;98178.69;;;16.76;96.78
73085;BME280;62974;49.460;10.892;2023-10-09T12:34:47;98160.44;;;16.83;97.14
73085;BME280;62974;49.460;10.892;2023-10-09T12:37:17;98164.56;;;16.85;96.07
73085;BME280;62974;49.460;10.892;2023-10-09T12:39:47;98184.84;;;16.83;95.16
73085;BME280;62974;49.460;10.892;2023-10-09T12:42:16;98179.41;;;16.83;95.21
73085;BME280;62974;49.460;10.892;2023-10-09T12:44:43;98157.06;;;16.99;95.12
73085;BME280;62974;49.460;10.892;2023-10-09T12:47:11;98139.59;;;16.95;94.85
73085;BME280;62974;49.460;10.892;2023-10-09T12:49:39;98129.78;;;16.94;96.11
73085;BME280;62974;49.460;10.892;2023-10-09T12:52:07;98118.44;;;16.97;94.10
73085;BME280;62974;49.460;10.892;2023-10-09T12:54:42;98121.78;;;16.99;93.36
73085;BME280;62974;49.460;10.892;2023-10-09T12:57:12;98116.09;;;17.01;92.57
73085;BME280;62974;49.460;10.892;2023-10-09T12:59:42;98110.09;;;17.10;92.89
73085;BME280;62974;49.460;10.892;2023-10-09T13:02:12;98108.09;;;17.06;91.59
73085;BME280;62974;49.460;10.892;2023-10-09T13:04:55;98108.22;;;17.11;88.34
73085;BME280;62974;49.460;10.892;2023-10-09T13:07:22;98108.09;;;17.17;86.81
73085;BME280;62974;49.460;10.892;2023-10-09T13:09:50;98105.50;;;17.22;86.15
73085;BME280;62974;49.460;10.892;2023-10-09T13:12:31;98100.66;;;17.36;86.86
73085;BME280;62974;49.460;10.892;2023-10-09T13:15:00;98098.06;;;17.29;86.77
73085;BME280;62974;49.460;10.892;2023-10-09T13:17:35;98094.06;;;17.44;85.46
73085;BME280;62974;49.460;10.892;2023-10-09T13:20:04;98085.47;;;17.35;84.80
73085;BME280;62974;49.460;10.892;2023-10-09T13:22:39;98083.69;;;17.75;81.05
73085;BME280;62974;49.460;10.892;2023-10-09T13:25:07;98093.81;;;17.57;83.89